Time,TemperatureF,DewpointF,PressureIn,WindDirection,WindDirectionDegrees,WindSpeedMPH,WindSpeedGustMPH,Humidity,HourlyPrecipIn,Conditions,Clouds,dailyrainin,SoftwareType,DateUTC
2013-08-22 00:01:00,68.7,62.7,30.10,West,270,0.0,0.0,81,0.00,,,0.00,WUHU21623XXSP,2013-08-22 04:01:00,
2013-08-22 00:06:00,68.7,62.7,30.09,West,270,0.0,0.0,81,0.00,,,0.00,WUHU21623XXSP,2013-08-22 04:06:00,
2013-08-22 00:11:00,68.7,62.7,30.09,West,270,0.0,0.0,81,0.00,,,0.00,WUHU21623XXSP,2013-08-22 04:11:00,
2013-08-22 00:16:00,68.5,62.5,30.09,West,270,0.0,0.0,81,0.00,,,0.00,WUHU21623XXSP,2013-08-22 04:16:00,
2013-08-22 00:21:00,68.5,62.5,30.09,West,270,0.0,0.0,81,0.00,,,0.00,WUHU21623XXSP,2013-08-22 04:21:00,
2013-08-22 00:26:00,68.4,62.3,30.09,West,270,0.0,0.0,81,0.00,,,0.00,WUHU21623XXSP,2013-08-22 04:26:00,
2013-08-22 00:31:00,68.5,62.8,30.08,West,270,0.0,0.0,82,0.00,,,0.00,WUHU21623XXSP,2013-08-22 04:31:00,
2013-08-22 00:36:00,68.4,62.7,30.08,West,270,0.0,0.0,82,0.00,,,0.00,WUHU21623XXSP,2013-08-22 04:36:00,
2013-08-22 00:42:00,68.4,62.7,30.08,West,270,0.0,0.0,82,0.00,,,0.00,WUHU21623XXSP,2013-08-22 04:42:00,
2013-08-22 00:47:00,68.2,62.5,30.08,West,270,0.0,0.0,82,0.00,,,0.00,WUHU21623XXSP,2013-08-22 04:47:00,
2013-08-22 00:52:00,68.2,62.5,30.08,West,270,0.0,0.0,82,0.00,,,0.00,WUHU21623XXSP,2013-08-22 04:52:00,
2013-08-22 00:57:00,68.2,62.5,30.08,West,270,0.0,0.0,82,0.00,,,0.00,WUHU21623XXSP,2013-08-22 04:57:00,
2013-08-22 01:02:00,68.2,62.5,30.08,West,270,0.0,0.0,82,0.00,,,0.00,WUHU21623XXSP,2013-08-22 05:02:00,
2013-08-22 01:07:00,68.2,62.5,30.09,West,270,0.0,0.0,82,0.00,,,0.00,WUHU21623XXSP,2013-08-22 05:07:00,
2013-08-22 01:12:00,67.8,62.2,30.09,West,270,0.0,0.0,82,0.00,,,0.00,WUHU21623XXSP,2013-08-22 05:12:00,
2013-08-22 01:17:00,67.8,62.2,30.09,West,270,0.0,0.0,82,0.00,,,0.00,WUHU21623XXSP,2013-08-22 05:17:00,
2013-08-22 01:22:00,67.8,62.2,30.09,West,270,0.0,0.0,82,0.00,,,0.00,WUHU21623XXSP,2013-08-22 05:22:00,
2013-08-22 01:27:00,67.8,62.2,30.09,West,270,0.0,0.0,82,0.00,,,0.00,WUHU21623XXSP,2013-08-22 05:27:00,
2013-08-22 01:32:00,67.8,62.2,30.09,West,270,0.0,0.0,82,0.00,,,0.00,WUHU21623XXSP,2013-08-22 05:32:00,
2013-08-22 01:37:00,67.8,62.2,30.09,West,270,0.0,0.0,82,0.00,,,0.00,WUHU21623XXSP,2013-08-22 05:37:00,
2013-08-22 01:42:00,67.8,62.2,30.09,West,270,0.0,0.0,82,0.00,,,0.00,WUHU21623XXSP,2013-08-22 05:42:00,
2013-08-22 01:47:00,68.0,62.3,30.09,West,270,0.0,0.0,82,0.00,,,0.00,WUHU21623XXSP,2013-08-22 05:47:00,
2013-08-22 01:52:00,68.2,62.8,30.09,West,270,0.0,0.0,83,0.00,,,0.00,WUHU21623XXSP,2013-08-22 05:52:00,
2013-08-22 01:57:00,68.2,62.8,30.09,West,270,0.0,0.0,83,0.00,,,0.00,WUHU21623XXSP,2013-08-22 05:57:00,
2013-08-22 02:02:00,68.2,62.8,30.10,West,270,0.0,0.0,83,0.00,,,0.00,WUHU21623XXSP,2013-08-22 06:02:00,
2013-08-22 02:07:00,68.2,62.8,30.09,West,270,0.0,0.0,83,0.00,,,0.00,WUHU21623XXSP,2013-08-22 06:07:00,
2013-08-22 02:12:00,68.2,62.8,30.10,West,270,0.0,0.0,83,0.00,,,0.00,WUHU21623XXSP,2013-08-22 06:12:00,
2013-08-22 02:17:00,68.4,63.0,30.09,West,270,0.0,0.0,83,0.00,,,0.00,WUHU21623XXSP,2013-08-22 06:17:00,
2013-08-22 02:22:00,68.4,63.0,30.10,West,270,0.0,0.0,83,0.00,,,0.00,WUHU21623XXSP,2013-08-22 06:22:00,
2013-08-22 02:27:00,68.5,63.2,30.10,West,270,0.0,0.0,83,0.00,,,0.00,WUHU21623XXSP,2013-08-22 06:27:00,
2013-08-22 02:32:00,68.5,63.2,30.10,West,270,0.0,0.0,83,0.00,,,0.00,WUHU21623XXSP,2013-08-22 06:32:00,
2013-08-22 02:37:00,68.7,63.7,30.10,West,270,0.0,0.0,84,0.00,,,0.00,WUHU21623XXSP,2013-08-22 06:37:00,
2013-08-22 02:42:00,68.7,63.7,30.10,West,270,0.0,0.0,84,0.00,,,0.00,WUHU21623XXSP,2013-08-22 06:42:00,
2013-08-22 02:47:00,68.9,63.8,30.10,West,270,0.0,0.0,84,0.00,,,0.00,WUHU21623XXSP,2013-08-22 06:47:00,
2013-08-22 02:52:00,69.3,64.2,30.10,West,270,0.0,0.0,84,0.00,,,0.00,WUHU21623XXSP,2013-08-22 06:52:00,
2013-08-22 02:57:00,69.4,64.3,30.10,West,270,0.0,0.0,84,0.00,,,0.00,WUHU21623XXSP,2013-08-22 06:57:00,
2013-08-22 03:02:00,69.4,64.3,30.10,North,0,0.0,0.0,84,0.00,,,0.00,WUHU21623XXSP,2013-08-22 07:02:00,
2013-08-22 03:10:00,69.4,64.3,30.10,North,0,0.0,0.0,84,0.00,,,0.00,WUHU21623XXSP,2013-08-22 07:10:00,
2013-08-22 03:15:00,69.6,64.5,30.09,WSW,247,0.0,0.0,84,0.00,,,0.00,WUHU21623XXSP,2013-08-22 07:15:00,
2013-08-22 03:20:00,69.6,64.8,30.09,WSW,247,0.0,0.0,85,0.02,,,0.02,WUHU21623XXSP,2013-08-22 07:20:00,
2013-08-22 03:25:00,69.6,64.8,30.10,WSW,247,0.0,0.0,85,0.02,,,0.02,WUHU21623XXSP,2013-08-22 07:25:00,
2013-08-22 03:30:00,69.6,64.8,30.09,WSW,247,0.0,0.0,85,0.02,,,0.02,WUHU21623XXSP,2013-08-22 07:30:00,
2013-08-22 03:35:00,69.6,64.8,30.10,WSW,247,0.0,0.0,85,0.02,,,0.02,WUHU21623XXSP,2013-08-22 07:35:00,
2013-08-22 03:40:00,69.6,64.8,30.10,WSW,247,0.0,0.0,85,0.02,,,0.02,WUHU21623XXSP,2013-08-22 07:40:00,
2013-08-22 03:45:00,69.6,64.8,30.10,WSW,247,0.0,0.0,85,0.02,,,0.02,WUHU21623XXSP,2013-08-22 07:45:00,
2013-08-22 03:50:00,69.6,64.5,30.10,WSW,247,0.0,0.0,84,0.02,,,0.02,WUHU21623XXSP,2013-08-22 07:50:00,
2013-08-22 03:55:00,69.6,64.5,30.10,WSW,247,0.0,0.0,84,0.02,,,0.02,WUHU21623XXSP,2013-08-22 07:55:00,
2013-08-22 04:00:00,69.6,64.5,30.10,WSW,247,0.0,0.0,84,0.02,,,0.02,WUHU21623XXSP,2013-08-22 08:00:00,
2013-08-22 04:05:00,69.6,64.5,30.10,WSW,247,0.0,0.0,84,0.02,,,0.02,WUHU21623XXSP,2013-08-22 08:05:00,
2013-08-22 04:10:00,69.6,64.5,30.10,WSW,247,0.0,0.0,84,0.02,,,0.02,WUHU21623XXSP,2013-08-22 08:10:00,
2013-08-22 04:15:00,69.6,64.5,30.11,WSW,247,0.0,0.0,84,0.02,,,0.02,WUHU21623XXSP,2013-08-22 08:15:00,
2013-08-22 04:20:00,69.6,64.5,30.11,WSW,247,0.0,0.0,84,0.00,,,0.02,WUHU21623XXSP,2013-08-22 08:20:00,
2013-08-22 04:25:00,69.6,64.5,30.11,WSW,247,0.0,0.0,84,0.00,,,0.02,WUHU21623XXSP,2013-08-22 08:25:00,
2013-08-22 04:30:00,69.6,64.5,30.11,North,0,0.0,0.0,84,0.00,,,0.02,WUHU21623XXSP,2013-08-22 08:30:00,
2013-08-22 04:45:00,68.7,64.3,30.11,North,0,0.0,0.0,86,0.00,,,0.02,WUHU21623XXSP,2013-08-22 08:45:00,
2013-08-22 04:50:00,68.7,64.3,30.11,WSW,247,0.0,0.0,86,0.00,,,0.02,WUHU21623XXSP,2013-08-22 08:50:00,
2013-08-22 04:55:00,68.7,64.7,30.11,WSW,247,0.0,0.0,87,0.19,,,0.21,WUHU21623XXSP,2013-08-22 08:55:00,
2013-08-22 05:00:00,68.7,64.7,30.11,WSW,247,0.0,0.0,87,0.19,,,0.21,WUHU21623XXSP,2013-08-22 09:00:00,
2013-08-22 05:05:00,68.7,64.7,30.11,WSW,247,0.0,0.0,87,0.19,,,0.21,WUHU21623XXSP,2013-08-22 09:05:00,
2013-08-22 05:10:00,68.7,65.0,30.10,WSW,247,0.0,0.0,88,0.19,,,0.21,WUHU21623XXSP,2013-08-22 09:10:00,
2013-08-22 05:15:00,68.7,65.0,30.10,WSW,247,0.0,0.0,88,0.19,,,0.21,WUHU21623XXSP,2013-08-22 09:15:00,
2013-08-22 05:20:00,68.7,65.0,30.10,WSW,247,0.0,0.0,88,0.19,,,0.21,WUHU21623XXSP,2013-08-22 09:20:00,
2013-08-22 05:21:00,68.7,65.0,30.10,North,0,0.0,0.0,88,0.19,,,0.21,WUHU21623XXSP,2013-08-22 09:21:00,
2013-08-22 05:25:00,68.7,65.0,30.10,WSW,247,0.0,0.0,88,0.19,,,0.21,WUHU21623XXSP,2013-08-22 09:25:00,
2013-08-22 05:30:00,68.7,65.0,30.10,North,0,0.0,0.0,88,0.19,,,0.21,WUHU21623XXSP,2013-08-22 09:30:00,
2013-08-22 06:49:00,68.5,65.5,30.06,West,270,0.0,0.0,90,0.00,,,0.21,WUHU21623XXSP,2013-08-22 10:49:00,
2013-08-22 06:50:00,68.5,65.5,30.07,West,270,0.0,0.0,90,0.00,,,0.21,WUHU21623XXSP,2013-08-22 10:50:00,
2013-08-22 06:51:00,68.5,65.5,30.07,West,270,0.0,0.0,90,0.00,,,0.21,WUHU21623XXSP,2013-08-22 10:51:00,
2013-08-22 06:52:00,68.5,65.5,30.07,West,270,0.0,0.0,90,0.00,,,0.21,WUHU21623XXSP,2013-08-22 10:52:00,
2013-08-22 06:53:00,68.5,65.5,30.08,West,270,0.0,0.0,90,0.00,,,0.21,WUHU21623XXSP,2013-08-22 10:53:00,
2013-08-22 06:54:00,68.5,65.5,30.08,West,270,0.0,0.0,90,0.00,,,0.21,WUHU21623XXSP,2013-08-22 10:54:00,
2013-08-22 06:55:00,68.5,65.5,30.08,West,270,0.0,0.0,90,0.00,,,0.21,WUHU21623XXSP,2013-08-22 10:55:00,
2013-08-22 06:56:00,68.5,65.5,30.08,West,270,0.0,0.0,90,0.00,,,0.21,WUHU21623XXSP,2013-08-22 10:56:00,
2013-08-22 06:58:00,68.5,65.5,30.08,West,270,0.0,0.0,90,0.00,,,0.21,WUHU21623XXSP,2013-08-22 10:58:00,
2013-08-22 06:59:00,68.5,65.5,30.08,West,270,0.0,0.0,90,0.00,,,0.21,WUHU21623XXSP,2013-08-22 10:59:00,
2013-08-22 07:00:00,68.5,65.5,30.08,West,270,0.0,0.0,90,0.00,,,0.21,WUHU21623XXSP,2013-08-22 11:00:00,
2013-08-22 07:01:00,68.5,65.5,30.08,West,270,0.0,0.0,90,0.00,,,0.21,WUHU21623XXSP,2013-08-22 11:01:00,
2013-08-22 07:02:00,68.5,65.5,30.08,West,270,0.0,0.0,90,0.00,,,0.21,WUHU21623XXSP,2013-08-22 11:02:00,
2013-08-22 07:03:00,68.5,65.5,30.08,West,270,0.0,0.0,90,0.00,,,0.21,WUHU21623XXSP,2013-08-22 11:03:00,
2013-08-22 07:04:00,68.5,65.5,30.08,West,270,0.0,0.0,90,0.00,,,0.21,WUHU21623XXSP,2013-08-22 11:04:00,
2013-08-22 07:05:00,68.5,65.5,30.08,West,270,0.0,0.0,90,0.00,,,0.21,WUHU21623XXSP,2013-08-22 11:05:00,
2013-08-22 07:07:00,68.5,65.5,30.08,West,270,0.0,0.0,90,0.00,,,0.21,WUHU21623XXSP,2013-08-22 11:07:00,
2013-08-22 07:08:00,68.5,65.5,30.08,West,270,0.0,0.0,90,0.00,,,0.21,WUHU21623XXSP,2013-08-22 11:08:00,
2013-08-22 07:09:00,68.5,65.5,30.08,West,270,0.0,0.0,90,0.00,,,0.21,WUHU21623XXSP,2013-08-22 11:09:00,
2013-08-22 07:10:00,68.5,65.5,30.08,West,270,0.0,0.0,90,0.00,,,0.21,WUHU21623XXSP,2013-08-22 11:10:00,
2013-08-22 07:12:00,68.5,65.5,30.08,West,270,0.0,0.0,90,0.00,,,0.21,WUHU21623XXSP,2013-08-22 11:12:00,
2013-08-22 07:13:00,68.5,65.5,30.08,West,270,0.0,0.0,90,0.00,,,0.21,WUHU21623XXSP,2013-08-22 11:13:00,
2013-08-22 07:14:00,68.5,65.5,30.08,West,270,0.0,0.0,90,0.00,,,0.21,WUHU21623XXSP,2013-08-22 11:14:00,
2013-08-22 07:15:00,68.5,65.5,30.08,West,270,0.0,0.0,90,0.00,,,0.21,WUHU21623XXSP,2013-08-22 11:15:00,
2013-08-22 07:16:00,68.5,65.5,30.08,West,270,0.0,0.0,90,0.00,,,0.21,WUHU21623XXSP,2013-08-22 11:16:00,
2013-08-22 07:17:00,68.5,65.5,30.08,West,270,0.0,0.0,90,0.00,,,0.21,WUHU21623XXSP,2013-08-22 11:17:00,
2013-08-22 07:18:00,68.5,65.5,30.08,West,270,0.0,0.0,90,0.00,,,0.21,WUHU21623XXSP,2013-08-22 11:18:00,
2013-08-22 07:20:00,68.5,65.5,30.08,West,270,0.0,0.0,90,0.00,,,0.21,WUHU21623XXSP,2013-08-22 11:20:00,
2013-08-22 07:21:00,68.5,65.5,30.08,West,270,0.0,0.0,90,0.00,,,0.21,WUHU21623XXSP,2013-08-22 11:21:00,
2013-08-22 08:14:00,68.7,65.3,30.09,West,270,0.0,0.0,89,0.00,,,0.21,WUHU21623XXSP,2013-08-22 12:14:00,
2013-08-22 08:16:00,68.7,65.3,30.09,West,270,0.0,0.0,89,0.00,,,0.21,WUHU21623XXSP,2013-08-22 12:16:00,
2013-08-22 08:18:00,68.7,65.3,30.09,West,270,0.0,0.0,89,0.00,,,0.21,WUHU21623XXSP,2013-08-22 12:18:00,
2013-08-22 08:19:00,68.7,65.3,30.09,West,270,0.0,0.0,89,0.00,,,0.21,WUHU21623XXSP,2013-08-22 12:19:00,
2013-08-22 08:20:00,68.7,65.3,30.09,West,270,0.0,0.0,89,0.00,,,0.21,WUHU21623XXSP,2013-08-22 12:20:00,
2013-08-22 08:22:00,68.7,65.3,30.09,West,270,0.0,0.0,89,0.00,,,0.21,WUHU21623XXSP,2013-08-22 12:22:00,
2013-08-22 08:23:00,68.7,65.3,30.09,West,270,0.0,0.0,89,0.00,,,0.21,WUHU21623XXSP,2013-08-22 12:23:00,
2013-08-22 08:25:00,68.7,65.3,30.09,West,270,0.0,0.0,89,0.00,,,0.21,WUHU21623XXSP,2013-08-22 12:25:00,
2013-08-22 08:27:00,68.7,65.3,30.09,West,270,0.0,0.0,89,0.00,,,0.21,WUHU21623XXSP,2013-08-22 12:27:00,
2013-08-22 08:32:00,68.9,65.5,30.09,West,270,0.0,0.0,89,0.04,,,0.25,WUHU21623XXSP,2013-08-22 12:32:00,
2013-08-22 08:37:00,68.9,65.5,30.09,West,270,0.0,0.0,89,0.04,,,0.25,WUHU21623XXSP,2013-08-22 12:37:00,
2013-08-22 08:42:00,68.9,65.5,30.09,West,270,0.0,0.0,89,0.04,,,0.25,WUHU21623XXSP,2013-08-22 12:42:00,
2013-08-22 08:44:00,68.9,65.5,30.09,North,0,0.0,0.0,89,0.04,,,0.25,WUHU21623XXSP,2013-08-22 12:44:00,
2013-08-22 08:47:00,68.9,65.5,30.09,West,270,0.0,0.0,89,0.04,,,0.25,WUHU21623XXSP,2013-08-22 12:47:00,
2013-08-22 08:52:00,68.9,65.5,30.09,North,0,0.0,0.0,89,0.04,,,0.25,WUHU21623XXSP,2013-08-22 12:52:00,
2013-08-22 14:16:00,69.2,64.2,30.13,NW,315,0.0,0.0,84,0.00,,,0.25,WUHU21623XXSP,2013-08-22 18:16:00,
2013-08-22 14:21:00,69.2,64.2,30.13,NW,315,0.0,0.0,84,0.00,,,0.25,WUHU21623XXSP,2013-08-22 18:21:00,
2013-08-22 14:26:00,69.3,64.0,30.13,NW,315,0.0,0.0,83,0.00,,,0.25,WUHU21623XXSP,2013-08-22 18:26:00,
2013-08-22 14:31:00,69.4,64.0,30.13,NW,315,0.0,0.0,83,0.00,,,0.25,WUHU21623XXSP,2013-08-22 18:31:00,
2013-08-22 14:36:00,69.5,64.1,30.13,NW,315,0.0,0.0,83,0.00,,,0.25,WUHU21623XXSP,2013-08-22 18:36:00,
2013-08-22 14:38:00,69.5,64.1,30.13,North,0,0.0,0.0,83,0.00,,,0.25,WUHU21623XXSP,2013-08-22 18:38:00,
2013-08-22 14:41:00,69.5,64.1,30.13,NW,315,0.0,0.0,83,0.00,,,0.25,WUHU21623XXSP,2013-08-22 18:41:00,
2013-08-22 14:46:00,69.5,64.1,30.13,North,0,0.0,0.0,83,0.00,,,0.25,WUHU21623XXSP,2013-08-22 18:46:00,
2013-08-22 15:19:00,68.5,62.2,30.14,NNW,337,0.0,0.0,80,0.00,,,0.25,WUHU21623XXSP,2013-08-22 19:19:00,
2013-08-22 15:24:00,68.6,62.3,30.13,NNW,337,0.0,0.0,80,0.00,,,0.25,WUHU21623XXSP,2013-08-22 19:24:00,
2013-08-22 15:29:00,68.8,62.5,30.13,NW,315,0.0,0.0,80,0.00,,,0.25,WUHU21623XXSP,2013-08-22 19:29:00,
2013-08-22 15:34:00,69.0,62.7,30.13,NW,315,0.0,0.0,80,0.00,,,0.25,WUHU21623XXSP,2013-08-22 19:34:00,
2013-08-22 15:39:00,68.7,62.3,30.13,NW,315,0.0,0.0,80,0.00,,,0.25,WUHU21623XXSP,2013-08-22 19:39:00,
2013-08-22 15:44:00,68.9,62.5,30.12,NW,315,0.0,0.0,80,0.00,,,0.25,WUHU21623XXSP,2013-08-22 19:44:00,
2013-08-22 15:49:00,69.1,62.8,30.12,NW,315,0.0,0.0,80,0.00,,,0.25,WUHU21623XXSP,2013-08-22 19:49:00,
2013-08-22 15:54:00,69.4,63.7,30.12,NW,315,0.0,0.0,82,0.00,,,0.25,WUHU21623XXSP,2013-08-22 19:54:00,
2013-08-22 15:59:00,69.4,63.8,30.12,NW,315,0.0,0.0,82,0.00,,,0.25,WUHU21623XXSP,2013-08-22 19:59:00,
2013-08-22 16:04:00,69.4,63.7,30.12,NW,315,0.0,0.0,82,0.00,,,0.25,WUHU21623XXSP,2013-08-22 20:04:00,
2013-08-22 16:09:00,69.5,63.8,30.12,NW,315,0.0,0.0,82,0.00,,,0.25,WUHU21623XXSP,2013-08-22 20:09:00,
2013-08-22 16:14:00,69.9,64.2,30.12,NW,315,0.0,0.0,82,0.00,,,0.25,WUHU21623XXSP,2013-08-22 20:14:00,
2013-08-22 16:19:00,69.8,64.5,30.11,NW,315,0.0,0.0,83,0.00,,,0.25,WUHU21623XXSP,2013-08-22 20:19:00,
2013-08-22 16:24:00,70.1,64.8,30.12,NW,315,0.0,0.0,83,0.00,,,0.25,WUHU21623XXSP,2013-08-22 20:24:00,
2013-08-22 16:29:00,70.2,64.9,30.12,NW,315,0.0,0.0,83,0.00,,,0.25,WUHU21623XXSP,2013-08-22 20:29:00,
2013-08-22 16:34:00,70.5,65.2,30.12,NW,315,0.0,0.0,83,0.00,,,0.25,WUHU21623XXSP,2013-08-22 20:34:00,
2013-08-22 16:39:00,70.7,65.4,30.12,NW,315,0.0,0.0,83,0.00,,,0.25,WUHU21623XXSP,2013-08-22 20:39:00,
2013-08-22 16:44:00,71.0,65.6,30.12,NW,315,0.0,0.0,83,0.00,,,0.25,WUHU21623XXSP,2013-08-22 20:44:00,
2013-08-22 16:49:00,71.1,65.8,30.12,NW,315,0.0,0.0,83,0.00,,,0.25,WUHU21623XXSP,2013-08-22 20:49:00,
2013-08-22 16:54:00,71.0,65.7,30.12,NW,315,0.0,0.0,83,0.00,,,0.25,WUHU21623XXSP,2013-08-22 20:54:00,
2013-08-22 16:59:00,71.3,66.0,30.12,NW,315,0.0,0.0,83,0.00,,,0.25,WUHU21623XXSP,2013-08-22 20:59:00,
2013-08-22 17:04:00,71.6,66.1,30.12,NW,315,0.0,0.0,83,0.00,,,0.25,WUHU21623XXSP,2013-08-22 21:04:00,
2013-08-22 17:09:00,71.4,66.0,30.11,NW,315,0.0,0.0,83,0.00,,,0.25,WUHU21623XXSP,2013-08-22 21:09:00,
2013-08-22 17:14:00,71.4,66.0,30.11,WNW,292,0.0,0.0,83,0.00,,,0.25,WUHU21623XXSP,2013-08-22 21:14:00,
2013-08-22 17:19:00,71.6,66.1,30.11,WNW,292,0.0,0.0,83,0.00,,,0.25,WUHU21623XXSP,2013-08-22 21:19:00,
2013-08-22 17:24:00,71.8,66.3,30.11,NW,315,0.0,0.0,83,0.00,,,0.25,WUHU21623XXSP,2013-08-22 21:24:00,
2013-08-22 17:29:00,71.8,66.3,30.10,NW,315,0.0,0.0,83,0.00,,,0.25,WUHU21623XXSP,2013-08-22 21:29:00,
2013-08-22 17:34:00,71.8,66.3,30.10,NW,315,0.0,0.0,83,0.00,,,0.25,WUHU21623XXSP,2013-08-22 21:34:00,
2013-08-22 17:35:00,71.8,66.3,30.11,NW,315,0.0,0.0,83,0.00,,,0.25,WUHU21623XXSP,2013-08-22 21:35:00,
2013-08-22 17:39:00,71.8,66.3,30.10,NW,315,0.0,0.0,83,0.00,,,0.25,WUHU21623XXSP,2013-08-22 21:39:00,
2013-08-22 17:44:00,71.8,66.3,30.10,NW,315,0.0,0.0,83,0.00,,,0.25,WUHU21623XXSP,2013-08-22 21:44:00,
2013-08-22 17:49:00,72.0,66.8,30.10,NW,315,0.0,0.0,84,0.00,,,0.25,WUHU21623XXSP,2013-08-22 21:49:00,
2013-08-22 17:54:00,72.0,66.8,30.09,NW,315,0.0,0.0,84,0.00,,,0.25,WUHU21623XXSP,2013-08-22 21:54:00,
2013-08-22 17:59:00,72.0,66.5,30.08,NW,315,0.0,0.0,83,0.00,,,0.25,WUHU21623XXSP,2013-08-22 21:59:00,
2013-08-22 18:04:00,71.8,66.3,30.08,NW,315,0.0,0.0,83,0.00,,,0.25,WUHU21623XXSP,2013-08-22 22:04:00,
2013-08-22 18:09:00,71.8,66.3,30.07,NW,315,0.0,0.0,83,0.00,,,0.25,WUHU21623XXSP,2013-08-22 22:09:00,
2013-08-22 18:14:00,71.8,66.3,30.07,NW,315,0.0,0.0,83,0.00,,,0.25,WUHU21623XXSP,2013-08-22 22:14:00,
2013-08-22 18:19:00,71.8,66.3,30.07,NW,315,0.0,0.0,83,0.00,,,0.25,WUHU21623XXSP,2013-08-22 22:19:00,
2013-08-22 18:24:00,71.6,66.1,30.06,WSW,247,0.0,0.0,83,0.00,,,0.25,WUHU21623XXSP,2013-08-22 22:24:00,
2013-08-22 18:29:00,71.4,66.0,30.06,WSW,247,0.0,0.0,83,0.00,,,0.25,WUHU21623XXSP,2013-08-22 22:29:00,
2013-08-22 18:34:00,71.4,66.0,30.05,WSW,247,0.0,0.0,83,0.00,,,0.25,WUHU21623XXSP,2013-08-22 22:34:00,
2013-08-22 18:39:00,71.4,66.3,30.04,WSW,247,0.0,0.0,84,0.00,,,0.25,WUHU21623XXSP,2013-08-22 22:39:00,
2013-08-22 18:44:00,71.2,66.1,30.03,SW,225,0.0,0.0,84,0.00,,,0.25,WUHU21623XXSP,2013-08-22 22:44:00,
2013-08-22 18:49:00,71.2,66.1,30.05,South,180,0.0,0.0,84,0.00,,,0.25,WUHU21623XXSP,2013-08-22 22:49:00,
2013-08-22 18:54:00,71.2,66.1,30.04,SSE,157,0.0,0.0,84,0.00,,,0.25,WUHU21623XXSP,2013-08-22 22:54:00,
2013-08-22 18:59:00,70.9,65.8,30.05,SSE,157,0.0,0.0,84,0.00,,,0.25,WUHU21623XXSP,2013-08-22 22:59:00,
2013-08-22 19:04:00,70.9,66.1,30.05,SSE,157,0.0,0.0,85,0.00,,,0.25,WUHU21623XXSP,2013-08-22 23:04:00,
2013-08-22 19:09:00,70.9,66.1,30.05,SSE,157,0.0,0.0,85,0.00,,,0.25,WUHU21623XXSP,2013-08-22 23:09:00,
2013-08-22 19:14:00,70.9,66.1,30.06,SSE,157,0.0,0.0,85,0.00,,,0.25,WUHU21623XXSP,2013-08-22 23:14:00,
2013-08-22 19:19:00,70.7,65.9,30.06,SSE,157,0.0,0.0,85,0.00,,,0.25,WUHU21623XXSP,2013-08-22 23:19:00,
2013-08-22 19:24:00,70.9,66.1,30.06,SSE,157,0.0,0.0,85,0.00,,,0.25,WUHU21623XXSP,2013-08-22 23:24:00,
2013-08-22 19:29:00,70.7,65.9,30.05,SSE,157,0.0,0.0,85,0.00,,,0.25,WUHU21623XXSP,2013-08-22 23:29:00,
2013-08-22 19:34:00,70.7,65.9,30.06,SSE,157,0.0,0.0,85,0.00,,,0.25,WUHU21623XXSP,2013-08-22 23:34:00,
2013-08-22 19:39:00,70.7,65.9,30.06,SSE,157,0.0,0.0,85,0.00,,,0.25,WUHU21623XXSP,2013-08-22 23:39:00,
2013-08-22 19:44:00,70.7,65.9,30.06,SSE,157,0.0,0.0,85,0.00,,,0.25,WUHU21623XXSP,2013-08-22 23:44:00,
2013-08-22 19:49:00,70.9,66.1,30.06,SSE,157,0.0,0.0,85,0.00,,,0.25,WUHU21623XXSP,2013-08-22 23:49:00,
2013-08-22 19:54:00,70.9,66.1,30.06,SSE,157,0.0,0.0,85,0.00,,,0.25,WUHU21623XXSP,2013-08-22 23:54:00,
2013-08-22 19:59:00,70.9,66.1,30.06,SSE,157,0.0,0.0,85,0.00,,,0.25,WUHU21623XXSP,2013-08-22 23:59:00,
2013-08-22 20:04:00,70.7,65.9,30.06,SSE,157,0.0,0.0,85,0.00,,,0.25,WUHU21623XXSP,2013-08-23 00:04:00,
2013-08-22 20:09:00,70.7,65.9,30.06,SSE,157,0.0,0.0,85,0.00,,,0.25,WUHU21623XXSP,2013-08-23 00:09:00,
2013-08-22 20:14:00,70.7,65.9,30.06,SSE,157,0.0,0.0,85,0.00,,,0.25,WUHU21623XXSP,2013-08-23 00:14:00,
2013-08-22 20:19:00,70.7,65.9,30.06,SSE,157,0.0,0.0,85,0.00,,,0.25,WUHU21623XXSP,2013-08-23 00:19:00,
2013-08-22 20:24:00,70.5,65.8,30.06,SSE,157,0.0,0.0,85,0.00,,,0.25,WUHU21623XXSP,2013-08-23 00:24:00,
2013-08-22 20:29:00,70.5,65.8,30.07,SSE,157,0.0,0.0,85,0.00,,,0.25,WUHU21623XXSP,2013-08-23 00:29:00,
2013-08-22 20:34:00,70.5,65.8,30.06,SSE,157,0.0,0.0,85,0.00,,,0.25,WUHU21623XXSP,2013-08-23 00:34:00,
2013-08-22 20:39:00,70.3,65.6,30.07,SSE,157,0.0,0.0,85,0.00,,,0.25,WUHU21623XXSP,2013-08-23 00:39:00,
2013-08-22 20:44:00,70.3,65.6,30.07,SSE,157,0.0,0.0,85,0.00,,,0.25,WUHU21623XXSP,2013-08-23 00:44:00,
2013-08-22 20:49:00,70.2,65.4,30.07,SSE,157,0.0,0.0,85,0.00,,,0.25,WUHU21623XXSP,2013-08-23 00:49:00,
2013-08-22 20:54:00,70.2,65.4,30.06,SSE,157,0.0,0.0,85,0.00,,,0.25,WUHU21623XXSP,2013-08-23 00:54:00,
2013-08-22 20:59:00,70.0,65.2,30.07,SSE,157,0.0,0.0,85,0.00,,,0.25,WUHU21623XXSP,2013-08-23 00:59:00,
2013-08-22 21:04:00,69.8,65.0,30.07,SSE,157,0.0,0.0,85,0.00,,,0.25,WUHU21623XXSP,2013-08-23 01:04:00,
2013-08-22 21:09:00,69.6,64.8,30.07,SSE,157,0.0,0.0,85,0.00,,,0.25,WUHU21623XXSP,2013-08-23 01:09:00,
2013-08-22 21:14:00,69.6,64.8,30.08,SSE,157,0.0,0.0,85,0.00,,,0.25,WUHU21623XXSP,2013-08-23 01:14:00,
2013-08-22 21:19:00,69.6,65.2,30.08,SSE,157,0.0,0.0,86,0.00,,,0.25,WUHU21623XXSP,2013-08-23 01:19:00,
2013-08-22 21:24:00,69.4,65.0,30.08,SSE,157,0.0,0.0,86,0.00,,,0.25,WUHU21623XXSP,2013-08-23 01:24:00,
2013-08-22 21:29:00,69.4,65.0,30.09,SSE,157,0.0,0.0,86,0.00,,,0.25,WUHU21623XXSP,2013-08-23 01:29:00,
2013-08-22 21:34:00,69.3,64.8,30.09,SSE,157,0.0,0.0,86,0.00,,,0.25,WUHU21623XXSP,2013-08-23 01:34:00,
2013-08-22 21:39:00,69.3,64.8,30.09,SSE,157,0.0,0.0,86,0.00,,,0.25,WUHU21623XXSP,2013-08-23 01:39:00,
2013-08-22 21:44:00,69.1,64.7,30.09,SSE,157,0.0,0.0,86,0.00,,,0.25,WUHU21623XXSP,2013-08-23 01:44:00,
2013-08-22 21:49:00,68.9,64.5,30.10,SSE,157,0.0,0.0,86,0.00,,,0.25,WUHU21623XXSP,2013-08-23 01:49:00,
2013-08-22 21:54:00,68.9,64.5,30.10,SSE,157,0.0,0.0,86,0.00,,,0.25,WUHU21623XXSP,2013-08-23 01:54:00,
2013-08-22 21:59:00,68.9,64.5,30.10,SSE,157,0.0,0.0,86,0.00,,,0.25,WUHU21623XXSP,2013-08-23 01:59:00,
2013-08-22 22:04:00,68.7,64.3,30.10,SSE,157,0.0,0.0,86,0.00,,,0.25,WUHU21623XXSP,2013-08-23 02:04:00,
2013-08-22 22:09:00,68.7,64.3,30.10,SSE,157,0.0,0.0,86,0.00,,,0.25,WUHU21623XXSP,2013-08-23 02:09:00,
2013-08-22 22:14:00,68.7,64.3,30.11,SSE,157,0.0,0.0,86,0.00,,,0.25,WUHU21623XXSP,2013-08-23 02:14:00,
2013-08-22 22:19:00,68.7,64.3,30.11,SSE,157,0.0,0.0,86,0.00,,,0.25,WUHU21623XXSP,2013-08-23 02:19:00,
2013-08-22 22:24:00,68.7,64.3,30.11,SSE,157,0.0,0.0,86,0.00,,,0.25,WUHU21623XXSP,2013-08-23 02:24:00,
2013-08-22 22:29:00,68.7,64.3,30.11,WNW,292,0.0,0.0,86,0.00,,,0.25,WUHU21623XXSP,2013-08-23 02:29:00,
2013-08-22 22:34:00,68.5,64.1,30.11,WNW,292,0.0,0.0,86,0.00,,,0.25,WUHU21623XXSP,2013-08-23 02:34:00,
2013-08-22 22:39:00,68.5,64.1,30.11,WNW,292,0.0,0.0,86,0.00,,,0.25,WUHU21623XXSP,2013-08-23 02:39:00,
2013-08-22 22:44:00,68.4,64.0,30.11,WNW,292,0.0,0.0,86,0.00,,,0.25,WUHU21623XXSP,2013-08-23 02:44:00,
2013-08-22 22:49:00,68.4,64.0,30.11,WNW,292,0.0,0.0,86,0.00,,,0.25,WUHU21623XXSP,2013-08-23 02:49:00,
2013-08-22 22:54:00,68.2,63.8,30.11,WNW,292,0.0,0.0,86,0.00,,,0.25,WUHU21623XXSP,2013-08-23 02:54:00,
2013-08-22 22:59:00,68.2,63.8,30.10,WNW,292,0.0,0.0,86,0.00,,,0.25,WUHU21623XXSP,2013-08-23 02:59:00,
2013-08-22 23:04:00,68.0,63.6,30.10,WNW,292,0.0,0.0,86,0.00,,,0.25,WUHU21623XXSP,2013-08-23 03:04:00,
2013-08-22 23:09:00,67.8,63.5,30.10,WNW,292,0.0,0.0,86,0.00,,,0.25,WUHU21623XXSP,2013-08-23 03:09:00,
2013-08-22 23:14:00,67.8,63.5,30.10,WNW,292,0.0,0.0,86,0.00,,,0.25,WUHU21623XXSP,2013-08-23 03:14:00,
2013-08-22 23:19:00,67.8,63.5,30.10,WNW,292,0.0,0.0,86,0.00,,,0.25,WUHU21623XXSP,2013-08-23 03:19:00,
2013-08-22 23:24:00,67.6,63.3,30.10,WNW,292,0.0,0.0,86,0.00,,,0.25,WUHU21623XXSP,2013-08-23 03:24:00,
2013-08-22 23:29:00,67.6,63.3,30.11,WNW,292,0.0,0.0,86,0.00,,,0.25,WUHU21623XXSP,2013-08-23 03:29:00,
2013-08-22 23:34:00,67.6,63.6,30.11,WNW,292,0.0,0.0,87,0.00,,,0.25,WUHU21623XXSP,2013-08-23 03:34:00,
2013-08-22 23:39:00,67.6,63.6,30.11,WNW,292,0.0,0.0,87,0.00,,,0.25,WUHU21623XXSP,2013-08-23 03:39:00,
2013-08-22 23:44:00,67.6,63.6,30.11,WNW,292,0.0,0.0,87,0.00,,,0.25,WUHU21623XXSP,2013-08-23 03:44:00,
2013-08-22 23:49:00,67.6,63.6,30.11,WNW,292,0.0,0.0,87,0.00,,,0.25,WUHU21623XXSP,2013-08-23 03:49:00,
2013-08-22 23:54:00,67.6,63.6,30.11,WNW,292,0.0,0.0,87,0.00,,,0.25,WUHU21623XXSP,2013-08-23 03:54:00,
2013-08-22 23:59:00,67.6,63.6,30.11,WNW,292,0.0,0.0,87,0.00,,,0.25,WUHU21623XXSP,2013-08-23 03:59:00,